sensor_id;sensor_type;location;lat;lon;timestamp;P1;durP1;ratioP1;P2;durP2;ratioP2
62616;SDS011;62539;51.190;6.808;2023-04-19T00:00:37;3.70;;;1.95;;
62616;SDS011;62539;51.190;6.808;2023-04-19T00:03:04;2.58;;;1.75;;
62616;SDS011;62539;51.190;6.808;2023-04-19T00:05:30;2.78;;;1.80;;
62616;SDS011;62539;51.190;6.808;2023-04-19T00:07:56;2.13;;;1.92;;
62616;SDS011;62539;51.190;6.808;2023-04-19T00:10:23;3.28;;;1.70;;
62616;SDS011;62539;51.190;6.808;2023-04-19T00:12:49;2.45;;;1.88;;
62616;SDS011;62539;51.190;6.808;2023-04-19T00:15:14;2.38;;;1.88;;
62616;SDS011;62539;51.190;6.808;2023-04-19T00:17:40;2.63;;;2.05;;
62616;SDS011;62539;51.190;6.808;2023-04-19T00:20:06;1.90;;;1.67;;
62616;SDS011;62539;51.190;6.808;2023-04-19T00:22:32;2.33;;;1.75;;
62616;SDS011;62539;51.190;6.808;2023-04-19T00:24:58;2.03;;;1.65;;
62616;SDS011;62539;51.190;6.808;2023-04-19T00:27:23;2.15;;;1.90;;
62616;SDS011;62539;51.190;6.808;2023-04-19T00:29:49;2.20;;;2.00;;
62616;SDS011;62539;51.190;6.808;2023-04-19T00:32:14;3.30;;;2.33;;
62616;SDS011;62539;51.190;6.808;2023-04-19T00:34:41;2.38;;;1.83;;
62616;SDS011;62539;51.190;6.808;2023-04-19T00:37:07;1.60;;;1.50;;
62616;SDS011;62539;51.190;6.808;2023-04-19T00:39:33;1.95;;;1.70;;
62616;SDS011;62539;51.190;6.808;2023-04-19T00:41:59;1.73;;;1.60;;
62616;SDS011;62539;51.190;6.808;2023-04-19T00:44:25;1.63;;;1.52;;
62616;SDS011;62539;51.190;6.808;2023-04-19T00:46:50;2.03;;;1.83;;
62616;SDS011;62539;51.190;6.808;2023-04-19T00:49:16;2.20;;;1.98;;
62616;SDS011;62539;51.190;6.808;2023-04-19T00:51:44;2.08;;;1.90;;
62616;SDS011;62539;51.190;6.808;2023-04-19T00:54:12;2.67;;;2.13;;
62616;SDS011;62539;51.190;6.808;2023-04-19T00:56:39;2.53;;;1.80;;
62616;SDS011;62539;51.190;6.808;2023-04-19T00:59:05;3.13;;;1.80;;
62616;SDS011;62539;51.190;6.808;2023-04-19T01:01:30;2.08;;;1.88;;
62616;SDS011;62539;51.190;6.808;2023-04-19T01:03:59;1.67;;;1.58;;
62616;SDS011;62539;51.190;6.808;2023-04-19T01:06:26;1.77;;;1.63;;
62616;SDS011;62539;51.190;6.808;2023-04-19T01:08:53;2.03;;;1.60;;
62616;SDS011;62539;51.190;6.808;2023-04-19T01:11:19;2.20;;;1.95;;
62616;SDS011;62539;51.190;6.808;2023-04-19T01:13:46;2.65;;;1.92;;
62616;SDS011;62539;51.190;6.808;2023-04-19T01:16:12;4.15;;;1.75;;
62616;SDS011;62539;51.190;6.808;2023-04-19T01:18:37;2.20;;;1.63;;
62616;SDS011;62539;51.190;6.808;2023-04-19T01:21:04;2.15;;;1.90;;
62616;SDS011;62539;51.190;6.808;2023-04-19T01:23:31;1.95;;;1.80;;
62616;SDS011;62539;51.190;6.808;2023-04-19T01:25:57;2.17;;;1.80;;
62616;SDS011;62539;51.190;6.808;2023-04-19T01:28:22;1.98;;;1.70;;
62616;SDS011;62539;51.190;6.808;2023-04-19T01:30:48;1.90;;;1.75;;
62616;SDS011;62539;51.190;6.808;2023-04-19T01:33:18;3.03;;;1.80;;
62616;SDS011;62539;51.190;6.808;2023-04-19T01:35:47;1.52;;;1.42;;
62616;SDS011;62539;51.190;6.808;2023-04-19T01:38:12;2.13;;;1.75;;
62616;SDS011;62539;51.190;6.808;2023-04-19T01:40:38;2.30;;;2.10;;
62616;SDS011;62539;51.190;6.808;2023-04-19T01:43:05;2.15;;;1.90;;
62616;SDS011;62539;51.190;6.808;2023-04-19T01:45:31;2.63;;;2.30;;
62616;SDS011;62539;51.190;6.808;2023-04-19T01:47:58;2.15;;;2.00;;
62616;SDS011;62539;51.190;6.808;2023-04-19T01:50:25;2.38;;;2.17;;
62616;SDS011;62539;51.190;6.808;2023-04-19T01:52:51;2.13;;;1.75;;
62616;SDS011;62539;51.190;6.808;2023-04-19T01:55:16;2.35;;;2.10;;
62616;SDS011;62539;51.190;6.808;2023-04-19T01:57:42;3.10;;;1.65;;
62616;SDS011;62539;51.190;6.808;2023-04-19T02:00:08;1.70;;;1.60;;
62616;SDS011;62539;51.190;6.808;2023-04-19T02:02:35;2.10;;;1.90;;
62616;SDS011;62539;51.190;6.808;2023-04-19T02:05:02;1.90;;;1.80;;
62616;SDS011;62539;51.190;6.808;2023-04-19T02:07:29;2.42;;;1.95;;
62616;SDS011;62539;51.190;6.808;2023-04-19T02:09:54;1.80;;;1.70;;
62616;SDS011;62539;51.190;6.808;2023-04-19T02:12:20;2.17;;;1.75;;
62616;SDS011;62539;51.190;6.808;2023-04-19T02:14:45;1.63;;;1.52;;
62616;SDS011;62539;51.190;6.808;2023-04-19T02:17:11;1.60;;;1.50;;
62616;SDS011;62539;51.190;6.808;2023-04-19T02:19:36;1.80;;;1.45;;
62616;SDS011;62539;51.190;6.808;2023-04-19T02:22:01;1.95;;;1.67;;
62616;SDS011;62539;51.190;6.808;2023-04-19T02:24:27;2.10;;;1.38;;
62616;SDS011;62539;51.190;6.808;2023-04-19T02:26:52;1.77;;;1.67;;
62616;SDS011;62539;51.190;6.808;2023-04-19T02:29:18;2.67;;;1.77;;
62616;SDS011;62539;51.190;6.808;2023-04-19T02:31:44;1.60;;;1.50;;
62616;SDS011;62539;51.190;6.808;2023-04-19T02:34:10;1.92;;;1.83;;
62616;SDS011;62539;51.190;6.808;2023-04-19T02:36:36;2.00;;;1.52;;
62616;SDS011;62539;51.190;6.808;2023-04-19T02:39:01;1.63;;;1.40;;
62616;SDS011;62539;51.190;6.808;2023-04-19T02:41:27;2.78;;;2.22;;
62616;SDS011;62539;51.190;6.808;2023-04-19T02:43:52;2.15;;;1.80;;
62616;SDS011;62539;51.190;6.808;2023-04-19T02:46:18;2.33;;;1.70;;
62616;SDS011;62539;51.190;6.808;2023-04-19T02:48:43;2.60;;;1.75;;
62616;SDS011;62539;51.190;6.808;2023-04-19T02:51:13;2.30;;;2.10;;
62616;SDS011;62539;51.190;6.808;2023-04-19T02:53:40;1.70;;;1.60;;
62616;SDS011;62539;51.190;6.808;2023-04-19T02:56:06;2.58;;;2.20;;
62616;SDS011;62539;51.190;6.808;2023-04-19T02:58:32;2.13;;;1.90;;
62616;SDS011;62539;51.190;6.808;2023-04-19T03:00:57;1.50;;;1.40;;
62616;SDS011;62539;51.190;6.808;2023-04-19T03:03:23;3.00;;;1.90;;
62616;SDS011;62539;51.190;6.808;2023-04-19T03:05:48;1.90;;;1.80;;
62616;SDS011;62539;51.190;6.808;2023-04-19T03:08:14;3.15;;;1.38;;
62616;SDS011;62539;51.190;6.808;2023-04-19T03:10:39;1.70;;;1.60;;
62616;SDS011;62539;51.190;6.808;2023-04-19T03:13:05;1.63;;;1.50;;
62616;SDS011;62539;51.190;6.808;2023-04-19T03:15:30;1.92;;;1.73;;
62616;SDS011;62539;51.190;6.808;2023-04-19T03:17:55;2.20;;;1.60;;
62616;SDS011;62539;51.190;6.808;2023-04-19T03:20:21;4.82;;;1.77;;
62616;SDS011;62539;51.190;6.808;2023-04-19T03:22:46;2.35;;;1.80;;
62616;SDS011;62539;51.190;6.808;2023-04-19T03:25:12;4.43;;;2.25;;
62616;SDS011;62539;51.190;6.808;2023-04-19T03:27:37;1.75;;;1.60;;
62616;SDS011;62539;51.190;6.808;2023-04-19T03:30:03;2.00;;;1.90;;
62616;SDS011;62539;51.190;6.808;2023-04-19T03:32:30;4.15;;;1.75;;
62616;SDS011;62539;51.190;6.808;2023-04-19T03:34:56;1.70;;;1.60;;
62616;SDS011;62539;51.190;6.808;2023-04-19T03:37:21;3.28;;;1.88;;
62616;SDS011;62539;51.190;6.808;2023-04-19T03:39:46;2.00;;;1.80;;
62616;SDS011;62539;51.190;6.808;2023-04-19T03:42:12;1.77;;;1.67;;
62616;SDS011;62539;51.190;6.808;2023-04-19T03:44:37;2.33;;;1.50;;
62616;SDS011;62539;51.190;6.808;2023-04-19T03:47:03;1.58;;;1.48;;
62616;SDS011;62539;51.190;6.808;2023-04-19T03:49:28;2.00;;;1.50;;
62616;SDS011;62539;51.190;6.808;2023-04-19T03:51:54;2.20;;;2.00;;
62616;SDS011;62539;51.190;6.808;2023-04-19T03:54:19;2.08;;;1.90;;
62616;SDS011;62539;51.190;6.808;2023-04-19T03:56:44;1.83;;;1.70;;
62616;SDS011;62539;51.190;6.808;2023-04-19T03:59:10;2.05;;;1.90;;
62616;SDS011;62539;51.190;6.808;2023-04-19T04:01:35;3.78;;;2.05;;
62616;SDS011;62539;51.190;6.808;2023-04-19T04:04:06;1.98;;;1.85;;
62616;SDS011;62539;51.190;6.808;2023-04-19T04:06:34;3.17;;;2.20;;
62616;SDS011;62539;51.190;6.808;2023-04-19T04:08:59;2.38;;;2.17;;
62616;SDS011;62539;51.190;6.808;2023-04-19T04:11:25;2.08;;;1.80;;
62616;SDS011;62539;51.190;6.808;2023-04-19T04:13:51;2.50;;;1.75;;
62616;SDS011;62539;51.190;6.808;2023-04-19T04:16:16;1.83;;;1.73;;
62616;SDS011;62539;51.190;6.808;2023-04-19T04:18:41;2.03;;;1.83;;
62616;SDS011;62539;51.190;6.808;2023-04-19T04:21:07;2.00;;;1.80;;
62616;SDS011;62539;51.190;6.808;2023-04-19T04:23:32;4.95;;;2.10;;
62616;SDS011;62539;51.190;6.808;2023-04-19T04:25:58;2.38;;;1.70;;
62616;SDS011;62539;51.190;6.808;2023-04-19T04:28:25;2.67;;;2.10;;
62616;SDS011;62539;51.190;6.808;2023-04-19T04:30:52;5.05;;;1.52;;
62616;SDS011;62539;51.190;6.808;2023-04-19T04:33:22;2.25;;;1.70;;
62616;SDS011;62539;51.190;6.808;2023-04-19T04:35:50;3.38;;;1.90;;
62616;SDS011;62539;51.190;6.808;2023-04-19T04:38:16;1.63;;;1.42;;
62616;SDS011;62539;51.190;6.808;2023-04-19T04:40:41;3.85;;;1.40;;
62616;SDS011;62539;51.190;6.808;2023-04-19T04:43:06;2.03;;;1.50;;
62616;SDS011;62539;51.190;6.808;2023-04-19T04:45:32;1.52;;;1.42;;
62616;SDS011;62539;51.190;6.808;2023-04-19T04:47:57;2.03;;;1.55;;
62616;SDS011;62539;51.190;6.808;2023-04-19T04:50:23;1.77;;;1.50;;
62616;SDS011;62539;51.190;6.808;2023-04-19T04:52:48;4.18;;;1.60;;
62616;SDS011;62539;51.190;6.808;2023-04-19T04:55:14;1.50;;;1.40;;
62616;SDS011;62539;51.190;6.808;2023-04-19T04:57:39;5.18;;;1.83;;
62616;SDS011;62539;51.190;6.808;2023-04-19T05:00:05;5.93;;;2.10;;
62616;SDS011;62539;51.190;6.808;2023-04-19T05:02:31;7.40;;;1.80;;
62616;SDS011;62539;51.190;6.808;2023-04-19T05:04:56;2.88;;;1.63;;
62616;SDS011;62539;51.190;6.808;2023-04-19T05:07:22;10.07;;;2.25;;
62616;SDS011;62539;51.190;6.808;2023-04-19T05:09:47;11.40;;;2.00;;
62616;SDS011;62539;51.190;6.808;2023-04-19T05:12:13;4.88;;;1.73;;
62616;SDS011;62539;51.190;6.808;2023-04-19T05:14:38;3.58;;;1.90;;
62616;SDS011;62539;51.190;6.808;2023-04-19T05:17:03;5.03;;;1.55;;
62616;SDS011;62539;51.190;6.808;2023-04-19T05:19:29;2.70;;;1.80;;
62616;SDS011;62539;51.190;6.808;2023-04-19T05:21:54;5.53;;;1.80;;
62616;SDS011;62539;51.190;6.808;2023-04-19T05:24:20;5.82;;;1.60;;
62616;SDS011;62539;51.190;6.808;2023-04-19T05:26:45;6.85;;;1.55;;
62616;SDS011;62539;51.190;6.808;2023-04-19T05:29:10;4.75;;;1.77;;
62616;SDS011;62539;51.190;6.808;2023-04-19T05:31:36;3.47;;;1.10;;
62616;SDS011;62539;51.190;6.808;2023-04-19T05:34:01;13.93;;;1.63;;
62616;SDS011;62539;51.190;6.808;2023-04-19T05:36:27;5.57;;;1.50;;
62616;SDS011;62539;51.190;6.808;2023-04-19T05:38:52;9.25;;;1.73;;
62616;SDS011;62539;51.190;6.808;2023-04-19T05:41:18;6.20;;;1.77;;
62616;SDS011;62539;51.190;6.808;2023-04-19T05:43:44;4.38;;;1.50;;
62616;SDS011;62539;51.190;6.808;2023-04-19T05:46:10;3.30;;;1.50;;
62616;SDS011;62539;51.190;6.808;2023-04-19T05:48:35;6.88;;;1.45;;
62616;SDS011;62539;51.190;6.808;2023-04-19T05:51:01;2.53;;;1.33;;
62616;SDS011;62539;51.190;6.808;2023-04-19T05:53:27;3.03;;;1.40;;
62616;SDS011;62539;51.190;6.808;2023-04-19T05:55:53;5.10;;;1.75;;
62616;SDS011;62539;51.190;6.808;2023-04-19T05:58:18;4.35;;;1.48;;
62616;SDS011;62539;51.190;6.808;2023-04-19T06:00:44;14.23;;;1.67;;
62616;SDS011;62539;51.190;6.808;2023-04-19T06:03:09;2.53;;;1.35;;
62616;SDS011;62539;51.190;6.808;2023-04-19T06:05:35;5.07;;;1.17;;
62616;SDS011;62539;51.190;6.808;2023-04-19T06:08:01;2.35;;;1.48;;
62616;SDS011;62539;51.190;6.808;2023-04-19T06:10:26;3.50;;;1.60;;
62616;SDS011;62539;51.190;6.808;2023-04-19T06:12:52;4.63;;;1.67;;
62616;SDS011;62539;51.190;6.808;2023-04-19T06:15:17;5.18;;;1.50;;
62616;SDS011;62539;51.190;6.808;2023-04-19T06:17:42;2.70;;;1.60;;
62616;SDS011;62539;51.190;6.808;2023-04-19T06:20:08;1.88;;;1.38;;
62616;SDS011;62539;51.190;6.808;2023-04-19T06:22:34;1.88;;;1.33;;
62616;SDS011;62539;51.190;6.808;2023-04-19T06:25:05;1.42;;;1.30;;
62616;SDS011;62539;51.190;6.808;2023-04-19T06:27:30;4.03;;;1.42;;
62616;SDS011;62539;51.190;6.808;2023-04-19T06:29:56;2.65;;;1.58;;
62616;SDS011;62539;51.190;6.808;2023-04-19T06:32:21;1.55;;;1.10;;
62616;SDS011;62539;51.190;6.808;2023-04-19T06:34:47;1.33;;;1.20;;
62616;SDS011;62539;51.190;6.808;2023-04-19T06:37:12;2.17;;;1.60;;
62616;SDS011;62539;51.190;6.808;2023-04-19T06:39:37;1.85;;;1.17;;
62616;SDS011;62539;51.190;6.808;2023-04-19T06:42:03;2.30;;;1.02;;
62616;SDS011;62539;51.190;6.808;2023-04-19T06:44:29;1.60;;;1.15;;
62616;SDS011;62539;51.190;6.808;2023-04-19T06:46:55;1.90;;;1.20;;
62616;SDS011;62539;51.190;6.808;2023-04-19T06:49:20;1.75;;;1.30;;
62616;SDS011;62539;51.190;6.808;2023-04-19T06:51:46;4.72;;;1.65;;
62616;SDS011;62539;51.190;6.808;2023-04-19T06:54:12;2.45;;;1.58;;
62616;SDS011;62539;51.190;6.808;2023-04-19T06:56:48;2.55;;;1.50;;
62616;SDS011;62539;51.190;6.808;2023-04-19T06:59:15;1.77;;;1.35;;
62616;SDS011;62539;51.190;6.808;2023-04-19T07:01:43;3.97;;;1.40;;
62616;SDS011;62539;51.190;6.808;2023-04-19T07:04:10;4.53;;;1.50;;
62616;SDS011;62539;51.190;6.808;2023-04-19T07:06:37;1.70;;;1.30;;
62616;SDS011;62539;51.190;6.808;2023-04-19T07:09:04;4.55;;;1.42;;
62616;SDS011;62539;51.190;6.808;2023-04-19T07:11:31;1.38;;;1.20;;
62616;SDS011;62539;51.190;6.808;2023-04-19T07:13:57;1.15;;;1.05;;
62616;SDS011;62539;51.190;6.808;2023-04-19T07:16:24;2.00;;;1.60;;
62616;SDS011;62539;51.190;6.808;2023-04-19T07:18:50;2.72;;;1.48;;
62616;SDS011;62539;51.190;6.808;2023-04-19T07:21:16;6.10;;;1.60;;
62616;SDS011;62539;51.190;6.808;2023-04-19T07:23:41;3.42;;;1.52;;
62616;SDS011;62539;51.190;6.808;2023-04-19T07:26:07;5.50;;;1.23;;
62616;SDS011;62539;51.190;6.808;2023-04-19T07:28:32;2.35;;;1.20;;
62616;SDS011;62539;51.190;6.808;2023-04-19T07:30:58;1.98;;;1.40;;
62616;SDS011;62539;51.190;6.808;2023-04-19T07:33:25;4.57;;;1.27;;
62616;SDS011;62539;51.190;6.808;2023-04-19T07:35:52;3.40;;;1.33;;
62616;SDS011;62539;51.190;6.808;2023-04-19T07:38:18;2.35;;;1.20;;
62616;SDS011;62539;51.190;6.808;2023-04-19T07:40:43;1.45;;;1.23;;
62616;SDS011;62539;51.190;6.808;2023-04-19T07:43:09;3.10;;;1.60;;
62616;SDS011;62539;51.190;6.808;2023-04-19T07:45:35;1.95;;;1.40;;
62616;SDS011;62539;51.190;6.808;2023-04-19T07:48:00;1.90;;;1.27;;
62616;SDS011;62539;51.190;6.808;2023-04-19T07:50:25;1.48;;;1.30;;
62616;SDS011;62539;51.190;6.808;2023-04-19T07:52:51;3.30;;;1.25;;
62616;SDS011;62539;51.190;6.808;2023-04-19T07:55:17;1.88;;;1.30;;
62616;SDS011;62539;51.190;6.808;2023-04-19T07:57:43;1.30;;;1.20;;
62616;SDS011;62539;51.190;6.808;2023-04-19T08:00:13;1.20;;;1.10;;
62616;SDS011;62539;51.190;6.808;2023-04-19T08:02:45;1.42;;;1.00;;
62616;SDS011;62539;51.190;6.808;2023-04-19T08:05:13;3.13;;;1.27;;
62616;SDS011;62539;51.190;6.808;2023-04-19T08:07:41;1.67;;;1.50;;
62616;SDS011;62539;51.190;6.808;2023-04-19T08:10:07;1.30;;;1.20;;
62616;SDS011;62539;51.190;6.808;2023-04-19T08:12:34;3.65;;;1.10;;
62616;SDS011;62539;51.190;6.808;2023-04-19T08:15:01;1.75;;;1.20;;
62616;SDS011;62539;51.190;6.808;2023-04-19T08:17:28;1.95;;;1.40;;
62616;SDS011;62539;51.190;6.808;2023-04-19T08:19:54;4.45;;;1.25;;
62616;SDS011;62539;51.190;6.808;2023-04-19T08:22:19;1.10;;;1.00;;
62616;SDS011;62539;51.190;6.808;2023-04-19T08:24:45;4.95;;;1.48;;
62616;SDS011;62539;51.190;6.808;2023-04-19T08:27:13;3.47;;;1.10;;
62616;SDS011;62539;51.190;6.808;2023-04-19T08:29:39;1.15;;;1.05;;
62616;SDS011;62539;51.190;6.808;2023-04-19T08:32:04;4.47;;;1.48;;
62616;SDS011;62539;51.190;6.808;2023-04-19T08:34:30;6.90;;;1.30;;
62616;SDS011;62539;51.190;6.808;2023-04-19T08:37:00;4.85;;;1.25;;
62616;SDS011;62539;51.190;6.808;2023-04-19T08:39:26;1.30;;;1.20;;
62616;SDS011;62539;51.190;6.808;2023-04-19T08:41:51;6.20;;;1.35;;
62616;SDS011;62539;51.190;6.808;2023-04-19T08:44:20;4.00;;;1.40;;
62616;SDS011;62539;51.190;6.808;2023-04-19T08:46:48;5.55;;;1.48;;
62616;SDS011;62539;51.190;6.808;2023-04-19T08:49:14;2.45;;;1.60;;
62616;SDS011;62539;51.190;6.808;2023-04-19T08:51:44;4.23;;;1.13;;
62616;SDS011;62539;51.190;6.808;2023-04-19T08:54:14;1.77;;;1.15;;
62616;SDS011;62539;51.190;6.808;2023-04-19T08:56:40;1.60;;;1.35;;
62616;SDS011;62539;51.190;6.808;2023-04-19T08:59:05;2.05;;;1.17;;
62616;SDS011;62539;51.190;6.808;2023-04-19T09:01:31;2.75;;;1.40;;
62616;SDS011;62539;51.190;6.808;2023-04-19T09:03:57;2.15;;;1.60;;
62616;SDS011;62539;51.190;6.808;2023-04-19T09:06:22;2.22;;;1.30;;
62616;SDS011;62539;51.190;6.808;2023-04-19T09:08:48;4.13;;;1.33;;
62616;SDS011;62539;51.190;6.808;2023-04-19T09:11:15;1.55;;;1.20;;
62616;SDS011;62539;51.190;6.808;2023-04-19T09:13:40;5.35;;;1.38;;
62616;SDS011;62539;51.190;6.808;2023-04-19T09:16:21;6.35;;;1.35;;
62616;SDS011;62539;51.190;6.808;2023-04-19T09:18:53;4.07;;;1.80;;
62616;SDS011;62539;51.190;6.808;2023-04-19T09:21:27;3.05;;;1.40;;
62616;SDS011;62539;51.190;6.808;2023-04-19T09:23:55;4.43;;;1.10;;
62616;SDS011;62539;51.190;6.808;2023-04-19T09:26:21;3.58;;;1.20;;
62616;SDS011;62539;51.190;6.808;2023-04-19T09:31:23;2.65;;;1.20;;
62616;SDS011;62539;51.190;6.808;2023-04-19T09:33:51;1.65;;;1.25;;
62616;SDS011;62539;51.190;6.808;2023-04-19T09:36:31;1.25;;;1.15;;
62616;SDS011;62539;51.190;6.808;2023-04-19T09:38:57;5.05;;;1.40;;
62616;SDS011;62539;51.190;6.808;2023-04-19T09:41:24;2.05;;;1.20;;
62616;SDS011;62539;51.190;6.808;2023-04-19T09:43:51;2.67;;;1.40;;
62616;SDS011;62539;51.190;6.808;2023-04-19T09:46:35;3.33;;;1.40;;
62616;SDS011;62539;51.190;6.808;2023-04-19T09:51:48;3.65;;;1.40;;
62616;SDS011;62539;51.190;6.808;2023-04-19T09:54:16;7.93;;;1.20;;
62616;SDS011;62539;51.190;6.808;2023-04-19T09:56:44;2.05;;;1.23;;
62616;SDS011;62539;51.190;6.808;2023-04-19T09:59:11;1.77;;;1.33;;
62616;SDS011;62539;51.190;6.808;2023-04-19T10:01:38;3.85;;;1.35;;
62616;SDS011;62539;51.190;6.808;2023-04-19T10:04:08;2.53;;;1.70;;
62616;SDS011;62539;51.190;6.808;2023-04-19T10:06:47;1.88;;;1.20;;
62616;SDS011;62539;51.190;6.808;2023-04-19T10:09:16;4.55;;;1.27;;
62616;SDS011;62539;51.190;6.808;2023-04-19T10:11:46;2.17;;;1.20;;
62616;SDS011;62539;51.190;6.808;2023-04-19T10:14:21;7.38;;;1.33;;
62616;SDS011;62539;51.190;6.808;2023-04-19T10:16:49;1.80;;;1.25;;
62616;SDS011;62539;51.190;6.808;2023-04-19T10:19:16;1.55;;;1.38;;
62616;SDS011;62539;51.190;6.808;2023-04-19T10:21:45;2.78;;;1.60;;
62616;SDS011;62539;51.190;6.808;2023-04-19T10:24:14;1.40;;;1.10;;
62616;SDS011;62539;51.190;6.808;2023-04-19T10:32:17;3.13;;;1.00;;
62616;SDS011;62539;51.190;6.808;2023-04-19T10:34:42;1.23;;;1.13;;
62616;SDS011;62539;51.190;6.808;2023-04-19T10:37:10;2.38;;;1.40;;
62616;SDS011;62539;51.190;6.808;2023-04-19T10:39:38;2.60;;;1.25;;
62616;SDS011;62539;51.190;6.808;2023-04-19T10:42:06;1.70;;;1.30;;
62616;SDS011;62539;51.190;6.808;2023-04-19T10:44:31;2.67;;;1.20;;
62616;SDS011;62539;51.190;6.808;2023-04-19T10:46:57;2.05;;;1.20;;
62616;SDS011;62539;51.190;6.808;2023-04-19T10:49:24;2.72;;;1.23;;
62616;SDS011;62539;51.190;6.808;2023-04-19T10:51:52;2.58;;;1.33;;
62616;SDS011;62539;51.190;6.808;2023-04-19T10:54:35;1.87;;;1.10;;
62616;SDS011;62539;51.190;6.808;2023-04-19T10:57:06;2.17;;;1.30;;
62616;SDS011;62539;51.190;6.808;2023-04-19T10:59:34;1.33;;;1.20;;
62616;SDS011;62539;51.190;6.808;2023-04-19T11:02:03;5.50;;;1.20;;
62616;SDS011;62539;51.190;6.808;2023-04-19T11:07:14;1.67;;;0.93;;
62616;SDS011;62539;51.190;6.808;2023-04-19T11:09:45;1.33;;;1.17;;
62616;SDS011;62539;51.190;6.808;2023-04-19T11:12:13;2.22;;;1.00;;
62616;SDS011;62539;51.190;6.808;2023-04-19T11:14:41;1.60;;;1.20;;
62616;SDS011;62539;51.190;6.808;2023-04-19T11:17:17;1.65;;;1.30;;
62616;SDS011;62539;51.190;6.808;2023-04-19T11:19:58;2.30;;;1.00;;
62616;SDS011;62539;51.190;6.808;2023-04-19T11:22:36;2.25;;;1.10;;
62616;SDS011;62539;51.190;6.808;2023-04-19T11:25:25;2.33;;;1.13;;
62616;SDS011;62539;51.190;6.808;2023-04-19T11:27:50;1.40;;;1.17;;
62616;SDS011;62539;51.190;6.808;2023-04-19T11:30:18;2.47;;;1.40;;
62616;SDS011;62539;51.190;6.808;2023-04-19T11:32:51;2.28;;;1.20;;
62616;SDS011;62539;51.190;6.808;2023-04-19T11:35:19;2.22;;;1.67;;
62616;SDS011;62539;51.190;6.808;2023-04-19T11:37:52;10.45;;;1.90;;
62616;SDS011;62539;51.190;6.808;2023-04-19T11:40:20;2.78;;;1.55;;
62616;SDS011;62539;51.190;6.808;2023-04-19T11:42:52;3.50;;;1.08;;
62616;SDS011;62539;51.190;6.808;2023-04-19T11:45:33;2.03;;;1.15;;
62616;SDS011;62539;51.190;6.808;2023-04-19T11:48:03;3.30;;;1.25;;
62616;SDS011;62539;51.190;6.808;2023-04-19T11:53:15;7.90;;;1.52;;
62616;SDS011;62539;51.190;6.808;2023-04-19T11:55:53;5.05;;;1.63;;
62616;SDS011;62539;51.190;6.808;2023-04-19T12:01:12;11.70;;;5.97;;
62616;SDS011;62539;51.190;6.808;2023-04-19T12:03:49;7.78;;;4.88;;
62616;SDS011;62539;51.190;6.808;2023-04-19T12:08:49;6.20;;;4.40;;
62616;SDS011;62539;51.190;6.808;2023-04-19T12:11:17;9.68;;;4.10;;
62616;SDS011;62539;51.190;6.808;2023-04-19T12:13:46;10.75;;;4.30;;
62616;SDS011;62539;51.190;6.808;2023-04-19T12:16:12;6.25;;;4.22;;
62616;SDS011;62539;51.190;6.808;2023-04-19T12:18:44;8.25;;;4.45;;
62616;SDS011;62539;51.190;6.808;2023-04-19T12:21:28;10.60;;;4.78;;
62616;SDS011;62539;51.190;6.808;2023-04-19T12:23:58;9.32;;;4.82;;
62616;SDS011;62539;51.190;6.808;2023-04-19T12:26:29;7.30;;;4.35;;
62616;SDS011;62539;51.190;6.808;2023-04-19T12:28:55;10.35;;;5.88;;
62616;SDS011;62539;51.190;6.808;2023-04-19T12:31:22;11.10;;;4.13;;
62616;SDS011;62539;51.190;6.808;2023-04-19T12:33:48;9.13;;;5.20;;
62616;SDS011;62539;51.190;6.808;2023-04-19T12:36:13;9.23;;;3.95;;
62616;SDS011;62539;51.190;6.808;2023-04-19T12:38:39;8.63;;;5.10;;
62616;SDS011;62539;51.190;6.808;2023-04-19T12:41:05;8.57;;;4.85;;
62616;SDS011;62539;51.190;6.808;2023-04-19T12:43:30;7.35;;;4.88;;
62616;SDS011;62539;51.190;6.808;2023-04-19T12:45:57;9.57;;;5.03;;
62616;SDS011;62539;51.190;6.808;2023-04-19T12:48:23;7.70;;;5.38;;
62616;SDS011;62539;51.190;6.808;2023-04-19T12:50:49;18.23;;;5.82;;
62616;SDS011;62539;51.190;6.808;2023-04-19T12:53:15;9.82;;;4.82;;
62616;SDS011;62539;51.190;6.808;2023-04-19T12:55:41;10.25;;;5.40;;
62616;SDS011;62539;51.190;6.808;2023-04-19T12:58:11;11.73;;;5.88;;
62616;SDS011;62539;51.190;6.808;2023-04-19T13:00:37;9.05;;;6.38;;
62616;SDS011;62539;51.190;6.808;2023-04-19T13:03:03;11.80;;;6.30;;
62616;SDS011;62539;51.190;6.808;2023-04-19T13:05:28;11.75;;;7.25;;
62616;SDS011;62539;51.190;6.808;2023-04-19T13:07:53;15.70;;;7.45;;
62616;SDS011;62539;51.190;6.808;2023-04-19T13:10:19;15.80;;;8.77;;
62616;SDS011;62539;51.190;6.808;2023-04-19T13:12:45;24.17;;;6.38;;
62616;SDS011;62539;51.190;6.808;2023-04-19T13:15:10;15.90;;;8.90;;
62616;SDS011;62539;51.190;6.808;2023-04-19T13:17:36;21.23;;;11.07;;
62616;SDS011;62539;51.190;6.808;2023-04-19T13:20:02;17.98;;;9.13;;
62616;SDS011;62539;51.190;6.808;2023-04-19T13:22:30;37.60;;;18.90;;
62616;SDS011;62539;51.190;6.808;2023-04-19T13:24:56;31.48;;;17.70;;
62616;SDS011;62539;51.190;6.808;2023-04-19T13:27:21;32.00;;;12.50;;
62616;SDS011;62539;51.190;6.808;2023-04-19T13:29:47;22.20;;;11.40;;
62616;SDS011;62539;51.190;6.808;2023-04-19T13:32:12;22.92;;;12.55;;
62616;SDS011;62539;51.190;6.808;2023-04-19T13:34:38;24.63;;;12.30;;
62616;SDS011;62539;51.190;6.808;2023-04-19T13:37:06;29.63;;;15.88;;
62616;SDS011;62539;51.190;6.808;2023-04-19T13:39:32;31.80;;;15.98;;
62616;SDS011;62539;51.190;6.808;2023-04-19T13:41:58;25.13;;;16.00;;
62616;SDS011;62539;51.190;6.808;2023-04-19T13:44:25;27.00;;;16.55;;
62616;SDS011;62539;51.190;6.808;2023-04-19T13:46:51;32.05;;;17.17;;
62616;SDS011;62539;51.190;6.808;2023-04-19T13:49:17;28.75;;;15.70;;
62616;SDS011;62539;51.190;6.808;2023-04-19T13:51:42;27.30;;;16.20;;
62616;SDS011;62539;51.190;6.808;2023-04-19T13:54:08;28.23;;;15.75;;
62616;SDS011;62539;51.190;6.808;2023-04-19T13:56:33;24.83;;;15.70;;
62616;SDS011;62539;51.190;6.808;2023-04-19T13:58:59;34.50;;;16.48;;
62616;SDS011;62539;51.190;6.808;2023-04-19T14:01:24;28.92;;;16.38;;
62616;SDS011;62539;51.190;6.808;2023-04-19T14:03:50;28.38;;;15.13;;
62616;SDS011;62539;51.190;6.808;2023-04-19T14:06:15;24.08;;;15.95;;
62616;SDS011;62539;51.190;6.808;2023-04-19T14:08:41;23.98;;;15.65;;
62616;SDS011;62539;51.190;6.808;2023-04-19T14:11:06;24.48;;;16.05;;
62616;SDS011;62539;51.190;6.808;2023-04-19T14:13:32;27.95;;;15.90;;
62616;SDS011;62539;51.190;6.808;2023-04-19T14:15:57;31.35;;;15.73;;
62616;SDS011;62539;51.190;6.808;2023-04-19T14:18:23;24.98;;;15.70;;
62616;SDS011;62539;51.190;6.808;2023-04-19T14:20:48;23.52;;;16.08;;
62616;SDS011;62539;51.190;6.808;2023-04-19T14:23:13;21.85;;;15.18;;
62616;SDS011;62539;51.190;6.808;2023-04-19T14:25:39;22.83;;;15.25;;
62616;SDS011;62539;51.190;6.808;2023-04-19T14:28:04;23.92;;;15.07;;
62616;SDS011;62539;51.190;6.808;2023-04-19T14:30:30;22.13;;;14.77;;
62616;SDS011;62539;51.190;6.808;2023-04-19T14:32:55;24.67;;;15.07;;
62616;SDS011;62539;51.190;6.808;2023-04-19T14:35:20;24.25;;;15.57;;
62616;SDS011;62539;51.190;6.808;2023-04-19T14:37:46;23.30;;;15.65;;
62616;SDS011;62539;51.190;6.808;2023-04-19T14:40:11;26.00;;;15.75;;
62616;SDS011;62539;51.190;6.808;2023-04-19T14:42:37;22.38;;;15.55;;
62616;SDS011;62539;51.190;6.808;2023-04-19T14:45:03;21.90;;;14.40;;
62616;SDS011;62539;51.190;6.808;2023-04-19T14:47:29;24.00;;;15.02;;
62616;SDS011;62539;51.190;6.808;2023-04-19T14:49:54;23.08;;;15.15;;
62616;SDS011;62539;51.190;6.808;2023-04-19T14:52:20;23.13;;;14.65;;
62616;SDS011;62539;51.190;6.808;2023-04-19T14:54:45;22.60;;;15.23;;
62616;SDS011;62539;51.190;6.808;2023-04-19T14:57:11;19.80;;;14.77;;
62616;SDS011;62539;51.190;6.808;2023-04-19T14:59:37;22.38;;;14.73;;
62616;SDS011;62539;51.190;6.808;2023-04-19T15:02:03;21.85;;;14.10;;